Time;durP1;ratioP1;P1;durP2;ratioP2;P2;SDS_P1;SDS_P2;PMS_P1;PMS_P2;Temp;Humidity;BMP_temperature;BMP_pressure;BME280_temperature;BME280_humidity;BME280_pressure;Samples;Min_cycle;Max_cycle;Signal;HPM_P1;HPM_P2
2021/04/01 00:00:15;;;;;;;10.27;6.85;;;11.60;98.00;;;;;;5088466;28;20024;-46
2021/04/01 00:02:42;;;;;;;11.35;6.40;;;11.60;97.30;;;;;;5088172;28;20032;-44
2021/04/01 00:05:09;;;;;;;9.35;5.55;;;11.60;99.90;;;;;;5087680;28;20020;-48
2021/04/01 00:07:34;;;;;;;9.00;5.63;;;11.60;99.90;;;;;;5069559;28;20403;-45
2021/04/01 00:10:00;;;;;;;8.50;5.35;;;11.60;99.90;;;;;;5088041;28;20044;-45
2021/04/01 00:12:26;;;;;;;7.53;5.40;;;11.60;99.90;;;;;;5069191;28;20449;-45
2021/04/01 00:14:52;;;;;;;11.07;6.55;;;11.60;99.90;;;;;;5069087;28;20135;-45
2021/04/01 00:17:18;;;;;;;11.95;6.65;;;11.50;99.90;;;;;;5088044;28;20103;-46
2021/04/01 00:19:44;;;;;;;10.13;6.60;;;11.50;99.90;;;;;;5087699;28;20028;-45
2021/04/01 00:22:09;;;;;;;13.02;6.60;;;11.50;99.90;;;;;;5087922;28;20051;-45
2021/04/01 00:24:35;;;;;;;14.77;7.60;;;11.50;99.90;;;;;;5087983;28;20032;-45
2021/04/01 00:27:00;;;;;;;12.07;6.78;;;11.50;99.90;;;;;;5069170;28;20077;-47
2021/04/01 00:29:26;;;;;;;12.00;6.45;;;11.50;99.90;;;;;;5088142;28;20477;-45
2021/04/01 00:31:52;;;;;;;9.70;6.53;;;11.50;99.90;;;;;;5087691;28;20088;-45
2021/04/01 00:34:18;;;;;;;9.35;6.65;;;11.50;99.90;;;;;;5087835;28;20050;-45
2021/04/01 00:36:43;;;;;;;10.13;6.07;;;11.50;99.90;;;;;;5068924;28;20032;-45
2021/04/01 00:39:09;;;;;;;12.80;6.93;;;11.50;99.90;;;;;;5087926;28;20040;-45
2021/04/01 00:41:37;;;;;;;8.70;6.32;;;11.50;99.90;;;;;;5069561;28;20032;-45
2021/04/01 00:44:04;;;;;;;10.05;6.78;;;11.50;99.90;;;;;;5087524;28;20027;-45
2021/04/01 00:46:29;;;;;;;9.38;6.53;;;11.60;99.90;;;;;;5068867;28;20051;-47
2021/04/01 00:48:55;;;;;;;9.65;6.90;;;11.60;99.90;;;;;;5087721;28;20304;-45
2021/04/01 00:51:21;;;;;;;10.80;6.55;;;11.60;99.90;;;;;;5087515;28;20035;-45
2021/04/01 00:53:46;;;;;;;7.20;5.40;;;11.60;99.90;;;;;;5087539;28;20107;-46
2021/04/01 00:56:12;;;;;;;9.93;6.10;;;11.60;99.90;;;;;;5086942;28;20099;-47
2021/04/01 00:58:37;;;;;;;11.40;6.47;;;11.60;99.90;;;;;;5087473;28;20118;-45
2021/04/01 01:03:48;;;;;;;10.10;6.57;;;11.50;99.90;;;;;;5087539;28;20023;-48
2021/04/01 01:06:13;;;;;;;11.93;7.53;;;11.50;99.90;;;;;;5087045;28;20423;-47
2021/04/01 01:08:39;;;;;;;13.20;7.85;;;11.50;99.90;;;;;;5087556;28;20504;-46
2021/04/01 01:11:04;;;;;;;11.57;6.90;;;11.40;99.90;;;;;;5087473;28;20482;-46
2021/04/01 01:13:30;;;;;;;9.77;6.32;;;11.50;99.90;;;;;;5087148;28;20031;-46
2021/04/01 01:15:56;;;;;;;13.68;7.80;;;11.40;99.90;;;;;;5086919;28;20039;-46
2021/04/01 01:18:21;;;;;;;13.38;7.80;;;11.40;99.90;;;;;;5087564;28;20451;-45
2021/04/01 01:20:47;;;;;;;9.65;6.55;;;11.30;99.90;;;;;;5087312;28;20039;-47
2021/04/01 01:23:13;;;;;;;8.40;6.30;;;11.30;99.90;;;;;;5088783;28;20024;-46
2021/04/01 01:25:38;;;;;;;13.30;7.40;;;11.40;99.90;;;;;;5090457;28;20024;-46
2021/04/01 01:28:05;;;;;;;13.68;7.55;;;11.30;99.90;;;;;;5090752;28;20031;-45
2021/04/01 01:30:33;;;;;;;15.15;7.07;;;11.20;99.90;;;;;;5090832;28;20044;-46
2021/04/01 01:33:01;;;;;;;11.07;6.88;;;11.20;99.90;;;;;;5090870;28;20024;-45
2021/04/01 01:35:31;;;;;;;10.35;6.80;;;11.30;99.90;;;;;;5090513;28;20030;-45
2021/04/01 01:37:59;;;;;;;9.93;6.95;;;11.30;99.90;;;;;;5090912;28;20508;-45
2021/04/01 01:40:26;;;;;;;14.40;7.55;;;11.30;99.90;;;;;;5090786;28;20507;-45
2021/04/01 01:42:53;;;;;;;12.05;7.13;;;11.30;99.90;;;;;;5090437;28;20028;-45
2021/04/01 01:45:19;;;;;;;13.25;8.25;;;11.30;99.90;;;;;;5090121;28;20020;-48
2021/04/01 01:47:45;;;;;;;13.70;8.05;;;11.20;99.90;;;;;;5090543;28;20027;-45
2021/04/01 01:50:12;;;;;;;15.75;7.97;;;11.10;99.90;;;;;;5090640;28;20039;-45
2021/04/01 01:52:39;;;;;;;11.45;7.70;;;11.10;99.90;;;;;;5090165;28;20035;-46
2021/04/01 01:55:06;;;;;;;10.10;6.45;;;11.10;99.90;;;;;;5089829;28;20404;-46
2021/04/01 01:57:35;;;;;;;10.02;6.88;;;11.10;99.90;;;;;;5090594;28;20031;-45
2021/04/01 02:00:04;;;;;;;14.10;9.02;;;11.10;99.90;;;;;;5090157;28;20576;-49
2021/04/01 02:02:29;;;;;;;14.52;7.55;;;11.00;99.90;;;;;;5090675;28;20051;-44
2021/04/01 02:04:55;;;;;;;14.88;8.77;;;11.10;99.90;;;;;;5090331;28;20056;-46
2021/04/01 02:07:20;;;;;;;12.85;8.43;;;11.10;99.90;;;;;;5090122;28;20046;-45
2021/04/01 02:09:47;;;;;;;18.67;8.82;;;11.10;99.90;;;;;;5090294;28;20032;-47
2021/04/01 02:12:16;;;;;;;11.65;7.97;;;11.20;99.90;;;;;;5090044;28;20036;-45
2021/04/01 02:14:43;;;;;;;12.65;8.80;;;11.20;99.90;;;;;;5090038;28;20370;-46
2021/04/01 02:17:11;;;;;;;12.80;7.75;;;11.20;99.90;;;;;;5089514;28;20032;-46
2021/04/01 02:19:37;;;;;;;13.32;8.65;;;11.30;99.90;;;;;;5090272;28;20024;-46
2021/04/01 02:22:03;;;;;;;19.65;9.50;;;11.20;99.90;;;;;;5089986;28;20020;-46
2021/04/01 02:24:28;;;;;;;21.30;10.20;;;11.20;99.90;;;;;;5090074;28;20077;-45
2021/04/01 02:26:55;;;;;;;16.52;9.00;;;11.20;99.90;;;;;;5089409;28;20481;-44
2021/04/01 02:29:21;;;;;;;16.85;9.02;;;11.20;99.90;;;;;;5089745;28;20032;-45
2021/04/01 02:31:47;;;;;;;20.05;10.40;;;11.20;99.90;;;;;;5089544;28;20032;-44
2021/04/01 02:34:12;;;;;;;17.48;10.23;;;11.20;99.90;;;;;;5070380;28;20035;-44
2021/04/01 02:36:38;;;;;;;18.60;9.90;;;11.30;99.90;;;;;;5088874;28;20031;-45
2021/04/01 02:39:03;;;;;;;15.60;9.32;;;11.30;99.90;;;;;;5088894;28;20408;-45
2021/04/01 02:41:29;;;;;;;18.13;10.20;;;11.30;99.90;;;;;;5089557;28;20259;-44
2021/04/01 02:43:54;;;;;;;18.75;10.45;;;11.40;99.90;;;;;;5089368;28;20024;-45
2021/04/01 02:46:20;;;;;;;16.73;9.55;;;11.40;99.90;;;;;;5088825;28;20103;-45
2021/04/01 02:48:45;;;;;;;18.83;9.15;;;11.30;99.90;;;;;;5089271;28;20028;-46
2021/04/01 02:51:11;;;;;;;16.70;9.23;;;11.30;99.90;;;;;;5089403;28;20067;-48
2021/04/01 02:53:36;;;;;;;17.23;8.40;;;11.30;99.90;;;;;;5089261;28;20032;-45
2021/04/01 02:56:02;;;;;;;14.10;8.82;;;11.30;99.90;;;;;;5088811;28;20052;-45
2021/04/01 02:58:28;;;;;;;21.08;11.55;;;11.30;99.90;;;;;;5070801;28;20206;-47
2021/04/01 03:00:53;;;;;;;22.92;11.07;;;11.30;99.90;;;;;;5089587;28;20034;-45
2021/04/01 03:03:24;;;;;;;16.25;9.15;;;11.30;99.90;;;;;;5089396;28;20032;-45
2021/04/01 03:05:49;;;;;;;;;;;11.30;99.90;;;;;;5089392;28;20104;-45
2021/04/01 03:08:15;;;;;;;16.80;10.07;;;11.30;99.90;;;;;;5088661;28;19936;-45
2021/04/01 03:10:41;;;;;;;16.40;9.90;;;11.30;99.90;;;;;;5070298;28;20458;-46
2021/04/01 03:13:07;;;;;;;18.50;9.55;;;11.30;99.90;;;;;;5088254;28;20023;-46
2021/04/01 03:15:33;;;;;;;13.90;8.63;;;11.30;99.90;;;;;;5087856;28;20069;-45
2021/04/01 03:17:59;;;;;;;23.13;11.63;;;11.20;99.90;;;;;;5088567;28;20036;-45
2021/04/01 03:20:24;;;;;;;23.92;10.80;;;11.20;99.90;;;;;;5069444;28;20089;-46
2021/04/01 03:22:50;;;;;;;17.98;10.38;;;11.20;99.90;;;;;;5088663;28;20024;-45
2021/04/01 03:25:16;;;;;;;15.25;9.90;;;11.20;99.90;;;;;;5069812;28;20505;-45
2021/04/01 03:27:42;;;;;;;19.52;10.40;;;11.20;99.90;;;;;;5088323;28;20062;-47
2021/04/01 03:30:17;;;;;;;17.23;10.25;;;11.20;99.90;;;;;;5087818;28;20059;-45
2021/04/01 03:32:45;;;;;;;13.60;8.95;;;11.20;99.90;;;;;;5088119;28;20042;-45
2021/04/01 03:35:13;;;;;;;19.80;11.13;;;11.10;99.90;;;;;;5084984;28;20024;-45
2021/04/01 03:37:41;;;;;;;16.85;9.48;;;11.10;99.90;;;;;;5081560;28;20490;-45
2021/04/01 03:40:08;;;;;;;17.55;9.90;;;11.10;99.90;;;;;;5083030;28;20027;-45
2021/04/01 03:42:36;;;;;;;15.88;8.90;;;11.10;99.90;;;;;;5083294;28;20019;-45
2021/04/01 03:45:03;;;;;;;13.18;8.80;;;11.10;99.90;;;;;;5082807;28;20035;-45
2021/04/01 03:47:28;;;;;;;15.68;9.70;;;11.00;99.90;;;;;;5082809;28;20020;-45
2021/04/01 03:49:54;;;;;;;13.95;9.05;;;11.00;99.90;;;;;;5081502;28;20058;-46
2021/04/01 03:52:19;;;;;;;15.88;9.13;;;11.00;99.90;;;;;;5082252;28;20154;-45
2021/04/01 03:54:50;;;;;;;17.60;9.50;;;11.00;99.90;;;;;;5084901;28;20466;-45
2021/04/01 03:57:16;;;;;;;14.20;9.10;;;11.00;99.90;;;;;;5082072;28;20049;-44
2021/04/01 04:02:19;;;;;;;14.13;9.27;;;11.00;99.90;;;;;;5083661;28;20243;-45
2021/04/01 04:07:48;;;;;;;14.98;9.70;;;11.10;99.90;;;;;;5085583;28;20082;-45
2021/04/01 04:15:22;;;;;;;15.02;9.65;;;11.00;99.90;;;;;;5084618;28;20509;-44
2021/04/01 04:17:49;;;;;;;14.13;9.10;;;11.00;99.90;;;;;;5088066;28;20035;-44
2021/04/01 04:20:15;;;;;;;15.60;9.65;;;11.00;99.90;;;;;;5069967;28;20500;-43
2021/04/01 04:22:42;;;;;;;17.67;10.45;;;11.00;99.90;;;;;;5085356;28;20083;-43
2021/04/01 04:25:10;;;;;;;18.33;9.95;;;11.00;99.90;;;;;;5083117;28;20020;-45
2021/04/01 04:28:01;;;;;;;17.83;10.63;;;11.10;99.90;;;;;;5081142;28;20062;-45
2021/04/01 04:30:28;;;;;;;19.10;10.27;;;11.10;99.90;;;;;;5081835;28;20024;-44
2021/04/01 04:32:54;;;;;;;22.58;13.93;;;11.10;99.90;;;;;;5081393;28;20099;-45
2021/04/01 04:35:20;;;;;;;22.15;12.95;;;11.10;99.90;;;;;;5087737;28;20420;-45
2021/04/01 04:37:47;;;;;;;19.30;12.13;;;11.10;99.90;;;;;;5087398;28;20039;-44
2021/04/01 04:40:14;;;;;;;19.80;12.00;;;11.10;99.90;;;;;;5087429;28;20077;-44
2021/04/01 04:42:39;;;;;;;18.63;11.50;;;11.10;99.90;;;;;;5084076;28;20024;-44
2021/04/01 04:45:07;;;;;;;19.17;11.95;;;11.10;99.90;;;;;;5086821;28;20103;-45
2021/04/01 04:47:34;;;;;;;25.05;13.07;;;11.20;99.90;;;;;;5068647;28;20110;-45
2021/04/01 04:50:00;;;;;;;21.95;12.00;;;11.20;99.90;;;;;;5087507;28;20089;-45
2021/04/01 04:52:26;;;;;;;21.88;12.35;;;11.20;99.90;;;;;;5087239;28;20431;-45
2021/04/01 04:54:51;;;;;;;22.40;12.80;;;11.20;99.90;;;;;;5080335;28;20073;-44
2021/04/01 05:00:02;;;;;;;22.75;12.73;;;11.20;99.90;;;;;;5091392;28;20028;-45
2021/04/01 05:05:11;;;;;;;26.52;14.38;;;11.20;99.90;;;;;;5090748;28;20089;-45
2021/04/01 05:07:37;;;;;;;22.70;12.90;;;11.30;99.90;;;;;;5091637;28;20032;-45
2021/04/01 05:10:03;;;;;;;22.33;12.05;;;11.30;99.90;;;;;;5091379;28;20112;-45
2021/04/01 05:12:28;;;;;;;21.15;13.18;;;11.30;99.90;;;;;;5091312;28;20176;-45
2021/04/01 05:14:54;;;;;;;18.92;12.38;;;11.30;99.90;;;;;;5072088;28;20024;-45
2021/04/01 05:17:22;;;;;;;21.08;12.13;;;11.30;99.90;;;;;;5091478;28;20032;-45
2021/04/01 05:19:50;;;;;;;23.20;14.65;;;11.40;99.90;;;;;;5091180;28;20024;-44
2021/04/01 05:22:23;;;;;;;23.63;14.95;;;11.40;99.90;;;;;;5091590;28;20072;-44
2021/04/01 05:24:51;;;;;;;31.17;17.60;;;11.50;99.90;;;;;;5091024;28;20045;-44
2021/04/01 05:29:58;;;;;;;34.08;19.13;;;11.60;99.90;;;;;;5090485;28;20059;-45
2021/04/01 05:32:26;;;;;;;29.85;17.67;;;11.60;99.90;;;;;;5090857;28;20036;-45
2021/04/01 05:34:52;;;;;;;38.03;20.70;;;11.60;99.90;;;;;;5086558;28;20056;-45
2021/04/01 05:37:17;;;;;;;34.63;17.08;;;11.70;99.90;;;;;;5095026;28;20044;-45
2021/04/01 05:39:44;;;;;;;31.55;17.83;;;11.70;99.90;;;;;;5094569;28;20025;-46
2021/04/01 05:42:10;;;;;;;29.63;17.95;;;11.70;99.90;;;;;;5090638;28;20350;-47
2021/04/01 05:44:40;;;;;;;34.88;20.13;;;11.80;99.90;;;;;;5088892;28;20281;-45
2021/04/01 05:47:21;;;;;;;32.10;17.63;;;11.80;99.90;;;;;;5099768;28;20090;-46
2021/04/01 06:03:56;;;;;;;38.42;21.10;;;12.20;99.90;;;;;;5073846;28;20073;-46
2021/04/01 06:06:42;;;;;;;34.42;19.67;;;12.20;99.90;;;;;;5097350;28;20023;-46
2021/04/01 06:09:18;;;;;;;33.60;18.83;;;12.30;99.90;;;;;;5089033;28;20036;-45
2021/04/01 06:11:49;;;;;;;31.67;19.08;;;12.40;99.90;;;;;;5074673;28;20028;-46
2021/04/01 06:14:21;;;;;;;32.60;19.77;;;12.40;99.90;;;;;;5086700;28;20156;-46
2021/04/01 06:16:47;;;;;;;36.40;20.92;;;12.40;99.90;;;;;;5091532;28;20053;-46
2021/04/01 06:19:16;;;;;;;30.30;19.00;;;12.50;99.90;;;;;;5098055;28;20239;-45
2021/04/01 06:21:45;;;;;;;34.80;20.17;;;12.60;99.90;;;;;;5099667;28;20390;-47
2021/04/01 06:24:28;;;;;;;32.38;19.15;;;12.70;99.90;;;;;;5097858;28;20019;-44
2021/04/01 06:27:02;;;;;;;33.17;18.40;;;12.90;98.20;;;;;;5103963;28;20493;-45
2021/04/01 06:29:31;;;;;;;35.25;20.17;;;13.00;98.10;;;;;;5109964;28;20020;-45
2021/04/01 06:32:00;;;;;;;38.13;21.30;;;13.10;98.30;;;;;;5110092;28;20035;-46
2021/04/01 06:34:45;;;;;;;38.40;20.75;;;13.20;95.50;;;;;;5091629;28;20452;-46
2021/04/01 06:37:38;;;;;;;31.60;19.73;;;13.30;94.80;;;;;;5109885;28;20119;-47
2021/04/01 06:40:06;;;;;;;30.70;17.48;;;13.40;94.90;;;;;;5098978;28;20032;-46
2021/04/01 06:42:47;;;;;;;33.97;18.60;;;13.50;94.50;;;;;;5083081;28;20028;-45
2021/04/01 06:45:18;;;;;;;31.95;17.60;;;13.60;95.60;;;;;;5088726;28;20070;-47
2021/04/01 06:47:49;;;;;;;35.08;20.38;;;13.70;96.50;;;;;;5089337;28;20020;-46
2021/04/01 06:50:26;;;;;;;32.85;19.73;;;13.70;95.30;;;;;;5089471;28;20081;-45
2021/04/01 06:53:05;;;;;;;39.60;23.50;;;13.80;95.80;;;;;;5089230;28;20524;-46
2021/04/01 06:58:46;;;;;;;39.25;22.38;;;14.00;92.50;;;;;;5059947;28;20493;-45
2021/04/01 07:01:34;;;;;;;32.20;20.00;;;14.20;92.70;;;;;;5090015;28;20036;-47
2021/04/01 07:04:04;;;;;;;34.70;20.90;;;14.30;93.30;;;;;;5089366;28;20035;-46
2021/04/01 07:06:34;;;;;;;39.67;23.17;;;14.30;94.00;;;;;;5088312;28;20024;-46
2021/04/01 07:09:08;;;;;;;33.78;20.83;;;14.30;93.00;;;;;;5089581;28;20028;-44
2021/04/01 07:11:42;;;;;;;42.35;22.00;;;14.30;92.70;;;;;;5089204;28;20028;-45
2021/04/01 07:14:19;;;;;;;39.08;22.00;;;14.30;92.30;;;;;;5088903;28;20149;-45
2021/04/01 07:16:52;;;;;;;39.33;20.45;;;14.30;92.10;;;;;;5088462;28;20481;-45
2021/04/01 07:19:46;;;;;;;40.30;20.52;;;14.20;92.10;;;;;;5087826;28;20020;-45
2021/04/01 07:30:49;;;;;;;32.63;20.55;;;14.10;92.30;;;;;;5059880;28;20032;-45
2021/04/01 07:44:46;;;;;;;38.92;23.52;;;13.90;93.70;;;;;;5068457;28;20229;-46
2021/04/01 07:47:23;;;;;;;39.30;23.10;;;13.90;93.90;;;;;;5067664;28;20054;-45
2021/04/01 07:49:51;;;;;;;37.05;22.05;;;13.90;94.20;;;;;;5067723;28;20031;-45
2021/04/01 07:52:21;;;;;;;43.80;23.75;;;13.90;95.00;;;;;;5069183;28;20035;-45
2021/04/01 07:57:51;;;;;;;37.38;22.17;;;13.80;94.80;;;;;;5089140;28;20377;-47
2021/04/01 08:00:22;;;;;;;36.92;20.85;;;13.90;95.60;;;;;;5088769;28;20281;-45
2021/04/01 08:05:24;;;;;;;45.30;23.75;;;14.20;94.40;;;;;;5087519;28;20038;-48
2021/04/01 08:07:57;;;;;;;39.85;24.02;;;14.20;93.10;;;;;;5081074;28;20024;-46
2021/04/01 08:10:28;;;;;;;48.05;26.30;;;14.10;92.80;;;;;;5069922;28;20393;-47
2021/04/01 08:13:01;;;;;;;46.78;25.13;;;14.10;91.40;;;;;;5088262;28;20035;-45
2021/04/01 08:15:33;;;;;;;39.53;24.42;;;14.10;92.40;;;;;;5087283;28;20024;-47
2021/04/01 08:18:08;;;;;;;45.00;25.75;;;14.10;93.50;;;;;;5087977;28;20284;-47
2021/04/01 08:20:35;;;;;;;42.90;24.45;;;14.20;94.30;;;;;;5087793;28;20108;-45
2021/04/01 08:25:41;;;;;;;44.10;24.58;;;14.20;93.60;;;;;;5087328;28;20103;-45
2021/04/01 08:31:41;;;;;;;48.25;26.83;;;14.50;94.40;;;;;;5063847;28;20036;-45
2021/04/01 08:34:18;;;;;;;45.05;25.98;;;14.60;92.60;;;;;;5068240;28;20682;-48
2021/04/01 08:36:49;;;;;;;42.65;25.20;;;15.10;92.20;;;;;;5085048;28;20107;-46
2021/04/01 08:39:18;;;;;;;45.00;25.60;;;15.30;92.00;;;;;;5091432;28;20633;-45
2021/04/01 08:42:18;;;;;;;39.35;24.08;;;15.50;91.30;;;;;;5091535;28;20036;-45
2021/04/01 08:45:29;;;;;;;41.78;25.40;;;15.80;90.20;;;;;;5090858;28;20358;-46
2021/04/01 08:48:23;;;;;;;43.90;25.38;;;16.50;86.80;;;;;;5084673;28;20058;-46
2021/04/01 08:51:07;;;;;;;45.42;27.73;;;17.80;78.80;;;;;;5071982;28;20231;-47
2021/04/01 08:53:46;;;;;;;44.08;27.90;;;18.40;72.10;;;;;;5090068;28;20490;-46
2021/04/01 08:56:27;;;;;;;51.63;29.80;;;18.60;69.90;;;;;;5089680;28;20030;-46
2021/04/01 08:59:10;;;;;;;48.85;29.52;;;18.80;67.70;;;;;;5090341;28;20404;-48
2021/04/01 09:01:40;;;;;;;46.63;29.15;;;19.80;65.30;;;;;;5090054;28;20024;-47
2021/04/01 09:04:07;;;;;;;47.78;29.15;;;20.40;59.60;;;;;;5090374;28;20024;-47
2021/04/01 09:06:40;;;;;;;50.08;29.52;;;21.90;56.40;;;;;;5089362;28;20111;-47
2021/04/01 09:09:13;;;;;;;48.05;30.30;;;23.50;49.90;;;;;;5089845;28;20023;-47
2021/04/01 09:12:01;;;;;;;47.17;31.25;;;23.90;49.30;;;;;;5089980;28;20028;-47
2021/04/01 09:14:34;;;;;;;41.83;28.80;;;23.70;48.00;;;;;;5089369;28;20039;-48
2021/04/01 09:17:12;;;;;;;52.47;34.92;;;23.10;48.50;;;;;;5089707;28;20094;-47
2021/04/01 09:19:43;;;;;;;57.35;33.53;;;22.80;47.60;;;;;;5071398;28;20509;-48
2021/04/01 09:22:15;;;;;;;61.17;35.78;;;22.80;47.20;;;;;;5089524;28;20168;-46
2021/04/01 09:24:41;;;;;;;57.15;37.53;;;22.50;45.80;;;;;;5089120;28;20020;-49
2021/04/01 09:27:10;;;;;;;55.55;35.75;;;22.90;45.00;;;;;;5089024;28;20258;-49
2021/04/01 09:29:41;;;;;;;57.33;35.63;;;23.40;43.70;;;;;;5088985;28;20266;-49
2021/04/01 09:32:10;;;;;;;48.10;32.47;;;24.10;44.30;;;;;;5089619;28;20047;-47
2021/04/01 09:34:37;;;;;;;48.83;30.23;;;24.90;45.40;;;;;;5089523;28;20254;-50
2021/04/01 09:37:16;;;;;;;53.25;36.60;;;26.00;41.40;;;;;;5088617;28;20497;-46
2021/04/01 09:39:43;;;;;;;48.17;31.10;;;26.50;40.70;;;;;;5070163;28;20459;-47
2021/04/01 09:42:14;;;;;;;46.92;31.27;;;27.10;41.70;;;;;;5089562;28;20081;-47
2021/04/01 09:45:10;;;;;;;49.83;34.75;;;27.80;40.20;;;;;;5088057;28;20046;-47
2021/04/01 09:47:45;;;;;;;43.25;29.73;;;28.50;39.10;;;;;;5067611;28;20103;-45
2021/04/01 09:50:13;;;;;;;49.55;35.75;;;28.90;38.50;;;;;;5083067;28;20394;-47
2021/04/01 09:52:40;;;;;;;55.80;39.33;;;29.20;37.30;;;;;;5088245;28;20285;-47
2021/04/01 09:55:13;;;;;;;57.30;39.08;;;29.10;34.90;;;;;;5088479;28;20052;-46
2021/04/01 09:57:53;;;;;;;44.80;33.05;;;29.40;36.30;;;;;;5089063;28;20042;-46
2021/04/01 10:00:29;;;;;;;;;;;29.80;37.40;;;;;;5089420;28;20111;-45
2021/04/01 10:03:07;;;;;;;57.20;38.58;;;29.20;34.90;;;;;;5089575;28;19908;-46
2021/04/01 10:05:39;;;;;;;61.78;40.50;;;28.40;36.00;;;;;;5085620;28;20546;-45
2021/04/01 10:08:08;;;;;;;64.25;41.83;;;27.90;37.10;;;;;;5088924;28;20055;-46
2021/04/01 10:10:41;;;;;;;59.15;38.88;;;27.40;36.40;;;;;;5070802;28;20028;-46
2021/04/01 10:13:23;;;;;;;67.32;43.45;;;26.70;37.90;;;;;;5069992;28;20036;-47
2021/04/01 10:15:50;;;;;;;71.65;44.75;;;25.20;39.00;;;;;;5087499;28;20051;-46
2021/04/01 10:18:20;;;;;;;75.32;44.67;;;24.50;40.50;;;;;;5088697;28;20024;-46
2021/04/01 10:20:53;;;;;;;67.82;43.55;;;24.70;39.30;;;;;;5088118;28;20020;-47
2021/04/01 10:23:19;;;;;;;69.68;44.28;;;25.20;39.70;;;;;;5088427;28;20028;-47
2021/04/01 10:25:55;;;;;;;76.47;47.20;;;26.40;38.40;;;;;;5087640;28;20058;-46
2021/04/01 10:28:45;;;;;;;76.72;47.00;;;27.20;36.50;;;;;;5088331;28;20214;-49
2021/04/01 10:31:14;;;;;;;73.45;45.80;;;27.10;36.40;;;;;;5087723;28;20570;-48
2021/04/01 10:34:07;;;;;;;81.13;49.08;;;26.90;35.50;;;;;;5079959;28;20136;-45
2021/04/01 10:36:38;;;;;;;74.53;45.78;;;27.50;33.90;;;;;;5087708;28;20032;-46
2021/04/01 10:39:10;;;;;;;70.60;44.88;;;27.90;34.40;;;;;;5088166;28;20035;-45
2021/04/01 10:41:48;;;;;;;69.22;43.17;;;29.00;34.10;;;;;;5087587;28;20036;-46
2021/04/01 10:44:16;;;;;;;65.95;43.92;;;28.80;33.90;;;;;;5087293;28;20572;-46
2021/04/01 10:46:51;;;;;;;58.55;40.60;;;29.70;34.20;;;;;;5087132;28;20107;-46
2021/04/01 10:49:24;;;;;;;71.13;43.63;;;29.90;32.80;;;;;;5087056;28;20074;-47
2021/04/01 10:51:51;;;;;;;63.33;43.55;;;30.20;32.00;;;;;;5084707;28;20052;-48
2021/04/01 10:54:18;;;;;;;61.08;40.63;;;29.50;33.20;;;;;;5087764;28;20098;-46
2021/04/01 10:56:55;;;;;;;63.55;41.42;;;29.40;33.70;;;;;;5092755;28;20210;-45
2021/04/01 10:59:45;;;;;;;64.03;43.03;;;29.50;34.70;;;;;;5092493;28;20102;-46
2021/04/01 11:02:23;;;;;;;66.63;43.42;;;29.40;35.50;;;;;;5106432;28;20019;-47
2021/04/01 11:05:05;;;;;;;67.10;43.55;;;29.70;33.00;;;;;;5102886;28;20066;-46
2021/04/01 11:07:35;;;;;;;66.57;43.22;;;30.00;33.40;;;;;;5081187;28;20580;-47
2021/04/01 11:10:02;;;;;;;60.92;43.00;;;29.10;34.20;;;;;;5087722;28;20042;-45
2021/04/01 11:12:28;;;;;;;69.22;42.78;;;28.90;35.80;;;;;;5087270;28;20303;-44
2021/04/01 11:15:03;;;;;;;76.80;47.10;;;29.10;36.50;;;;;;5091567;28;20028;-47
2021/04/01 11:17:32;;;;;;;69.90;45.67;;;29.00;34.20;;;;;;5106572;28;20023;-45
2021/04/01 11:20:00;;;;;;;76.68;46.72;;;27.60;35.10;;;;;;5107235;28;20455;-46
2021/04/01 11:22:27;;;;;;;80.55;49.13;;;26.90;36.90;;;;;;5107205;28;20078;-46
2021/04/01 11:24:53;;;;;;;85.03;47.92;;;26.60;36.50;;;;;;5086937;28;20032;-45
2021/04/01 11:27:20;;;;;;;80.75;47.03;;;26.40;36.30;;;;;;5087051;28;20074;-45
2021/04/01 11:29:55;;;;;;;75.47;44.45;;;26.40;36.70;;;;;;5068704;28;20031;-46
2021/04/01 11:32:29;;;;;;;81.35;47.25;;;26.00;36.70;;;;;;5087403;28;20046;-45
2021/04/01 11:34:57;;;;;;;81.65;46.65;;;25.20;38.10;;;;;;5086727;28;20471;-45
2021/04/01 11:37:25;;;;;;;83.68;46.50;;;25.00;39.60;;;;;;5087052;28;20050;-48
2021/04/01 11:39:57;;;;;;;82.28;47.50;;;24.20;38.90;;;;;;5087032;28;20124;-45
2021/04/01 11:42:23;;;;;;;74.68;44.75;;;24.60;39.90;;;;;;5069272;28;20113;-45
2021/04/01 11:44:59;;;;;;;79.38;46.95;;;25.40;39.40;;;;;;5086682;28;20020;-48
2021/04/01 11:47:28;;;;;;;82.68;47.35;;;26.00;38.00;;;;;;5086755;28;20020;-47
2021/04/01 11:49:54;;;;;;;73.00;44.67;;;25.90;38.50;;;;;;5084659;28;20031;-47
2021/04/01 11:52:22;;;;;;;78.63;47.17;;;26.30;38.90;;;;;;5079529;28;20027;-46
2021/04/01 11:54:51;;;;;;;66.97;42.58;;;26.60;36.50;;;;;;5087138;28;20035;-46
2021/04/01 11:57:29;;;;;;;68.78;44.22;;;26.70;37.50;;;;;;5087130;28;20062;-45
2021/04/01 12:00:03;;;;;;;72.75;44.63;;;26.40;38.30;;;;;;5086847;28;20066;-44
2021/04/01 12:02:31;;;;;;;79.60;47.20;;;25.40;40.80;;;;;;5087046;28;20024;-47
2021/04/01 12:04:59;;;;;;;73.97;46.78;;;24.70;39.70;;;;;;5086119;28;20019;-45
2021/04/01 12:07:26;;;;;;;81.20;48.38;;;23.90;41.40;;;;;;5067757;28;20544;-45
2021/04/01 12:09:52;;;;;;;78.93;45.53;;;23.30;43.00;;;;;;5086636;28;20123;-47
2021/04/01 12:12:28;;;;;;;77.32;44.35;;;22.70;44.40;;;;;;5086796;28;20160;-45
2021/04/01 12:14:54;;;;;;;78.43;45.63;;;22.40;46.00;;;;;;5085549;28;20441;-45
2021/04/01 12:17:33;;;;;;;67.20;38.92;;;22.60;46.20;;;;;;5086404;28;20032;-45
2021/04/01 12:19:59;;;;;;;70.07;39.70;;;22.90;45.80;;;;;;5086623;28;20056;-48
2021/04/01 12:22:33;;;;;;;64.50;38.53;;;23.60;45.00;;;;;;5086652;28;20024;-47
2021/04/01 12:24:59;;;;;;;65.78;39.22;;;24.20;42.30;;;;;;5085869;28;20028;-47
2021/04/01 12:27:30;;;;;;;59.78;37.08;;;24.30;43.10;;;;;;5086116;28;20405;-45
2021/04/01 12:29:56;;;;;;;58.85;37.45;;;24.30;42.40;;;;;;5067953;28;20111;-45
2021/04/01 12:32:33;;;;;;;59.80;34.80;;;24.50;43.90;;;;;;5086307;28;20914;-45
2021/04/01 12:35:04;;;;;;;61.58;36.78;;;24.10;43.90;;;;;;5085998;28;20405;-45
2021/04/01 12:37:29;;;;;;;55.15;34.38;;;23.90;45.80;;;;;;5086138;28;20032;-48
2021/04/01 12:39:55;;;;;;;50.28;30.65;;;24.20;43.70;;;;;;5086396;28;20432;-46
2021/04/01 12:42:21;;;;;;;50.40;32.53;;;24.10;44.60;;;;;;5086408;28;20117;-45
2021/04/01 12:44:46;;;;;;;56.05;32.03;;;23.90;46.20;;;;;;5085944;28;20263;-50
2021/04/01 12:47:22;;;;;;;48.53;28.85;;;24.10;46.10;;;;;;5085639;28;20230;-45
2021/04/01 12:49:49;;;;;;;51.72;32.38;;;23.80;47.60;;;;;;5086113;28;20024;-45
2021/04/01 12:52:15;;;;;;;44.45;28.17;;;24.00;46.20;;;;;;5081711;28;20039;-45
2021/04/01 12:54:43;;;;;;;47.83;30.05;;;24.00;46.60;;;;;;5085157;28;20024;-45
2021/04/01 12:57:15;;;;;;;43.83;27.90;;;23.60;45.70;;;;;;5085862;28;20616;-45
2021/04/01 12:59:43;;;;;;;43.78;25.48;;;23.30;47.10;;;;;;5085761;28;20636;-45
2021/04/01 13:02:12;;;;;;;40.33;25.35;;;23.20;47.70;;;;;;5086151;28;20329;-45
2021/04/01 13:04:41;;;;;;;37.25;23.20;;;23.20;49.60;;;;;;5086072;28;20023;-46
2021/04/01 13:09:58;;;;;;;31.77;20.25;;;22.60;49.60;;;;;;5086171;28;20035;-47
2021/04/01 13:12:24;;;;;;;31.90;19.70;;;22.20;50.20;;;;;;5086377;28;20020;-49
2021/04/01 13:14:49;;;;;;;33.22;21.38;;;21.60;52.20;;;;;;5085339;28;20464;-47
2021/04/01 13:17:16;;;;;;;33.40;20.60;;;20.60;53.60;;;;;;5085964;28;20032;-48
2021/04/01 13:19:42;;;;;;;27.75;17.35;;;20.40;55.00;;;;;;5088143;28;20028;-45
2021/04/01 13:27:17;;;;;;;28.67;13.73;;;19.60;55.50;;;;;;5089748;28;20097;-46
2021/04/01 13:29:51;;;;;;;16.60;11.32;;;19.40;56.20;;;;;;5089398;28;20027;-45
2021/04/01 13:32:39;;;;;;;22.15;13.25;;;19.30;56.40;;;;;;5089473;28;20032;-47
2021/04/01 13:35:10;;;;;;;20.33;11.75;;;19.00;56.80;;;;;;5089134;28;20493;-46
2021/04/01 13:37:42;;;;;;;22.02;13.73;;;18.90;56.50;;;;;;5089618;28;20082;-46
2021/04/01 13:40:13;;;;;;;21.17;12.40;;;18.90;55.80;;;;;;5089540;28;20028;-47
2021/04/01 13:42:42;;;;;;;26.88;17.33;;;18.70;57.50;;;;;;5089658;28;20111;-46
2021/04/01 13:45:11;;;;;;;31.75;19.30;;;18.60;57.90;;;;;;5088428;28;20027;-45
2021/04/01 13:47:41;;;;;;;31.88;18.30;;;18.50;58.30;;;;;;5088868;28;20029;-45
2021/04/01 13:50:08;;;;;;;26.35;17.02;;;18.70;58.10;;;;;;5089321;28;20039;-46
2021/04/01 13:52:43;;;;;;;27.52;17.83;;;18.60;58.10;;;;;;5085795;28;20119;-46
2021/04/01 13:55:20;;;;;;;32.15;18.67;;;18.40;59.60;;;;;;5082072;28;20036;-46
2021/04/01 14:11:25;;;;;;;28.60;16.35;;;17.20;64.30;;;;;;5089531;28;20085;-46
2021/04/01 14:13:51;;;;;;;28.40;18.38;;;17.30;64.60;;;;;;5088730;28;20070;-45
2021/04/01 14:16:17;;;;;;;28.23;16.90;;;17.20;65.00;;;;;;5088113;28;20055;-45